createdAt,value
2022-08-06T00:00:38.883Z,17.37
2022-08-06T00:03:51.215Z,16.88
2022-08-06T00:06:58.683Z,16.35
2022-08-06T00:10:05.792Z,16.35
2022-08-06T00:13:14.415Z,16.43
2022-08-06T00:16:36.435Z,16.54
2022-08-06T00:19:58.075Z,15.62
2022-08-06T00:23:08.207Z,15.69
2022-08-06T00:26:22.846Z,16.04
2022-08-06T00:29:43.951Z,15.67
2022-08-06T00:32:53.631Z,15.52
2022-08-06T00:35:59.964Z,15.62
2022-08-06T00:39:09.584Z,15.46
2022-08-06T00:42:19.214Z,15.55
2022-08-06T00:45:26.011Z,15.65
2022-08-06T00:48:52.753Z,15.79
2022-08-06T00:51:58.759Z,16.23
2022-08-06T00:55:17.338Z,15.92
2022-08-06T00:58:24.414Z,15.71
2022-08-06T01:01:49.847Z,15.48
2022-08-06T01:05:06.877Z,15.09
2022-08-06T01:08:22.912Z,15.60
2022-08-06T01:11:32.080Z,15.35
2022-08-06T01:14:41.064Z,14.72
2022-08-06T01:17:59.782Z,14.91
2022-08-06T01:22:29.460Z,15.40
2022-08-06T01:25:01.419Z,15.10
2022-08-06T01:28:15.227Z,15.04
2022-08-06T01:31:38.612Z,15.22
2022-08-06T01:34:53.264Z,14.99
2022-08-06T01:38:04.696Z,14.95
2022-08-06T01:41:35.280Z,15.04
2022-08-06T01:45:04.903Z,15.34
2022-08-06T01:48:14.905Z,15.52
2022-08-06T01:52:14.125Z,14.92
2022-08-06T01:54:53.625Z,15.11
2022-08-06T01:58:07.527Z,15.10
2022-08-06T02:01:29.006Z,15.58
2022-08-06T02:05:00.001Z,15.23
2022-08-06T02:08:36.353Z,15.55
2022-08-06T02:12:03.646Z,15.79
2022-08-06T02:15:15.784Z,15.80
2022-08-06T02:18:35.434Z,15.25
2022-08-06T02:21:50.318Z,14.70
2022-08-06T02:25:14.432Z,14.35
2022-08-06T02:28:25.676Z,14.40
2022-08-06T02:31:38.598Z,14.00
2022-08-06T02:34:55.752Z,14.22
2022-08-06T02:38:10.670Z,14.89
2022-08-06T02:41:22.986Z,15.11
2022-08-06T02:44:45.579Z,15.00
2022-08-06T02:48:01.850Z,15.08
2022-08-06T02:51:43.736Z,15.21
2022-08-06T02:54:47.632Z,15.07
2022-08-06T02:58:00.204Z,14.37
2022-08-06T03:01:12.163Z,14.03
2022-08-06T03:04:32.451Z,14.31
2022-08-06T03:07:42.480Z,14.29
2022-08-06T03:10:49.790Z,14.62
2022-08-06T03:13:57.533Z,14.72
2022-08-06T03:17:04.668Z,14.95
2022-08-06T03:20:16.464Z,14.78
2022-08-06T03:23:26.891Z,14.20
2022-08-06T03:26:35.720Z,13.52
2022-08-06T03:29:46.268Z,13.46
2022-08-06T03:32:53.870Z,13.77
2022-08-06T03:36:03.938Z,13.52
2022-08-06T03:39:16.843Z,13.47
2022-08-06T03:42:32.908Z,13.42
2022-08-06T03:45:58.841Z,13.27
2022-08-06T03:49:10.692Z,13.23
2022-08-06T03:52:24.663Z,13.15
2022-08-06T03:55:36.958Z,13.29
2022-08-06T03:58:45.573Z,13.43
2022-08-06T04:01:54.944Z,13.62
2022-08-06T04:05:06.861Z,14.15
2022-08-06T04:08:15.001Z,14.80
2022-08-06T04:12:12.792Z,15.11
2022-08-06T04:14:52.467Z,15.12
2022-08-06T04:18:00.799Z,15.16
2022-08-06T04:23:04.420Z,14.99
2022-08-06T04:24:47.306Z,14.78
2022-08-06T04:27:57.693Z,15.57
2022-08-06T04:31:05.630Z,15.92
2022-08-06T04:34:13.756Z,15.71
2022-08-06T04:37:20.751Z,15.56
2022-08-06T04:40:35.420Z,15.70
2022-08-06T04:43:52.929Z,15.32
2022-08-06T04:47:02.918Z,15.40
2022-08-06T04:50:11.139Z,15.32
2022-08-06T04:53:42.781Z,15.46
2022-08-06T04:56:50.008Z,15.75
2022-08-06T04:59:57.994Z,15.43
2022-08-06T05:03:04.644Z,15.72
2022-08-06T05:06:16.060Z,15.47
2022-08-06T05:09:42.144Z,15.70
2022-08-06T05:12:56.237Z,15.64
2022-08-06T05:16:07.980Z,16.06
2022-08-06T05:19:24.034Z,16.29
2022-08-06T05:22:52.264Z,16.55
2022-08-06T05:26:00.801Z,17.33
2022-08-06T05:29:08.191Z,17.36
2022-08-06T05:32:24.896Z,17.58
2022-08-06T05:35:40.248Z,18.31
2022-08-06T05:38:59.502Z,18.39
2022-08-06T05:42:06.390Z,18.55
2022-08-06T05:45:14.891Z,18.76
2022-08-06T05:48:29.061Z,18.88
2022-08-06T05:51:43.590Z,19.39
2022-08-06T05:55:11.338Z,19.27
2022-08-06T05:58:29.498Z,19.58
2022-08-06T06:01:37.918Z,19.64
2022-08-06T06:06:05.116Z,19.98
2022-08-06T06:08:18.374Z,20.58
2022-08-06T06:11:54.675Z,20.39
2022-08-06T06:16:00.198Z,20.99
2022-08-06T06:18:47.721Z,21.06
2022-08-06T06:22:12.927Z,21.15
2022-08-06T06:25:28.095Z,21.04
2022-08-06T06:28:47.211Z,21.83
2022-08-06T06:32:07.163Z,22.06
2022-08-06T06:35:24.884Z,22.01
2022-08-06T06:38:46.859Z,21.93
2022-08-06T06:42:06.410Z,22.27
2022-08-06T06:46:06.006Z,22.58
2022-08-06T06:48:48.792Z,22.45
2022-08-06T06:52:09.057Z,23.12
2022-08-06T06:55:27.177Z,23.17
2022-08-06T06:58:57.854Z,23.52
2022-08-06T07:02:23.709Z,23.87
2022-08-06T07:06:05.410Z,24.26
2022-08-06T07:09:00.269Z,24.77
2022-08-06T07:12:25.750Z,24.26
2022-08-06T07:15:43.047Z,24.06
2022-08-06T07:18:53.384Z,24.68
2022-08-06T07:22:00.987Z,24.89
2022-08-06T07:25:16.106Z,25.10
2022-08-06T07:28:29.092Z,24.92
2022-08-06T07:31:36.200Z,24.15
2022-08-06T07:34:43.717Z,23.99
2022-08-06T07:37:55.520Z,24.24
2022-08-06T07:41:08.908Z,24.55
2022-08-06T07:44:17.838Z,25.08
2022-08-06T07:47:41.204Z,24.75
2022-08-06T07:50:57.327Z,24.45
2022-08-06T07:54:09.454Z,24.41
2022-08-06T07:57:25.399Z,25.11
2022-08-06T08:00:38.683Z,25.10
2022-08-06T08:04:03.167Z,25.65
2022-08-06T08:07:37.885Z,26.54
2022-08-06T08:10:59.781Z,27.00
2022-08-06T08:14:07.289Z,27.54
2022-08-06T08:17:16.217Z,28.11
2022-08-06T08:20:22.503Z,27.77
2022-08-06T08:23:34.096Z,28.27
2022-08-06T08:27:04.494Z,28.92
2022-08-06T08:30:14.769Z,28.16
2022-08-06T08:33:23.199Z,29.11
2022-08-06T08:36:33.380Z,28.73
2022-08-06T08:39:43.802Z,29.89
2022-08-06T08:42:55.093Z,29.98
2022-08-06T08:46:04.881Z,29.25
2022-08-06T08:49:23.013Z,28.23
2022-08-06T08:52:35.878Z,29.01
2022-08-06T08:57:10.697Z,28.84
2022-08-06T08:59:58.972Z,29.17
2022-08-06T09:02:36.227Z,28.62
2022-08-06T09:05:47.666Z,28.51
2022-08-06T09:09:03.341Z,28.59
2022-08-06T09:12:20.430Z,28.50
2022-08-06T09:15:40.642Z,29.65
2022-08-06T09:18:47.618Z,29.34
2022-08-06T09:21:56.094Z,28.41
2022-08-06T09:25:07.964Z,28.36
2022-08-06T09:28:31.074Z,28.12
2022-08-06T09:31:44.468Z,28.65
2022-08-06T09:34:50.975Z,29.58
2022-08-06T09:38:06.575Z,29.74
2022-08-06T09:41:15.293Z,30.38
2022-08-06T09:44:35.250Z,30.70
2022-08-06T09:47:57.694Z,30.59
2022-08-06T09:51:06.107Z,29.82
2022-08-06T09:54:25.490Z,28.11
2022-08-06T09:57:44.717Z,28.60
2022-08-06T10:00:52.967Z,28.47
2022-08-06T10:04:02.290Z,28.87
2022-08-06T10:07:17.273Z,28.74
2022-08-06T10:10:49.555Z,28.98
2022-08-06T10:13:56.227Z,29.66
2022-08-06T10:17:09.146Z,30.54
2022-08-06T10:20:18.573Z,29.90
2022-08-06T10:23:26.663Z,30.49
2022-08-06T10:26:35.809Z,30.76
2022-08-06T10:29:43.766Z,31.27
2022-08-06T10:33:02.520Z,31.63
2022-08-06T10:36:11.920Z,31.20
2022-08-06T10:40:10.132Z,30.71
2022-08-06T10:42:54.852Z,31.29
2022-08-06T10:46:02.095Z,30.03
2022-08-06T10:50:30.011Z,29.89
2022-08-06T10:52:40.063Z,29.50
2022-08-06T10:55:47.172Z,29.51
2022-08-06T10:58:56.521Z,29.05
2022-08-06T11:02:17.426Z,28.93
2022-08-06T11:05:29.311Z,28.63
2022-08-06T11:09:10.865Z,27.99
2022-08-06T11:12:33.511Z,28.59
2022-08-06T11:15:43.020Z,28.74
2022-08-06T11:19:07.269Z,28.79
2022-08-06T11:22:37.581Z,28.52
2022-08-06T11:25:46.135Z,28.08
2022-08-06T11:29:02.531Z,28.92
2022-08-06T11:32:45.580Z,29.03
2022-08-06T11:35:54.039Z,28.31
2022-08-06T11:39:16.802Z,28.65
2022-08-06T11:42:50.580Z,28.44
2022-08-06T11:46:31.568Z,30.22
2022-08-06T11:49:46.614Z,31.20
2022-08-06T11:52:53.531Z,30.95
2022-08-06T11:56:10.094Z,30.09
2022-08-06T11:59:17.571Z,29.52
2022-08-06T12:03:03.292Z,29.20
2022-08-06T12:06:26.379Z,29.32
2022-08-06T12:09:39.697Z,29.53
2022-08-06T12:12:48.013Z,29.20
2022-08-06T12:16:10.522Z,29.91
2022-08-06T12:19:19.034Z,29.80
2022-08-06T12:22:29.457Z,30.10
2022-08-06T12:25:37.798Z,31.38
2022-08-06T12:28:44.908Z,30.86
2022-08-06T12:31:51.509Z,30.33
2022-08-06T12:35:00.086Z,31.33
2022-08-06T12:38:12.775Z,30.34
2022-08-06T12:41:20.582Z,30.91
2022-08-06T12:44:57.661Z,30.50
2022-08-06T12:48:11.631Z,30.45
2022-08-06T12:51:18.416Z,30.50
2022-08-06T12:54:31.189Z,30.23
2022-08-06T12:57:59.154Z,30.56
2022-08-06T13:01:06.969Z,30.21
2022-08-06T13:04:16.327Z,29.84
2022-08-06T13:07:24.525Z,30.51
2022-08-06T13:10:52.159Z,30.67
2022-08-06T13:14:15.372Z,29.25
2022-08-06T13:17:41.438Z,29.19
2022-08-06T13:20:52.276Z,29.42
2022-08-06T13:24:01.331Z,28.91
2022-08-06T13:27:11.144Z,27.88
2022-08-06T13:30:34.278Z,27.72
2022-08-06T13:34:04.247Z,27.76
2022-08-06T13:37:15.886Z,28.18
2022-08-06T13:40:38.144Z,28.29
2022-08-06T13:43:53.699Z,28.36
2022-08-06T13:47:02.520Z,28.31
2022-08-06T13:50:19.691Z,28.56
2022-08-06T13:53:40.609Z,29.47
2022-08-06T13:56:56.321Z,30.14
2022-08-06T14:00:05.247Z,29.89
2022-08-06T14:03:13.777Z,29.58
2022-08-06T14:06:20.519Z,29.40
2022-08-06T14:09:41.174Z,29.74
2022-08-06T14:13:16.161Z,28.79
2022-08-06T14:16:24.374Z,28.71
2022-08-06T14:20:10.075Z,28.77
2022-08-06T14:22:58.289Z,28.90
2022-08-06T14:26:08.552Z,28.74
2022-08-06T14:30:29.358Z,28.91
2022-08-06T14:32:48.016Z,28.85
2022-08-06T14:35:54.719Z,29.37
2022-08-06T14:39:12.376Z,30.59
2022-08-06T14:43:05.188Z,31.17
2022-08-06T14:46:11.078Z,31.15
2022-08-06T14:49:18.793Z,31.66
2022-08-06T14:52:25.498Z,31.10
2022-08-06T14:55:31.964Z,30.40
2022-08-06T14:58:38.495Z,31.41
2022-08-06T15:01:46.602Z,31.64
2022-08-06T15:04:54.630Z,31.29
2022-08-06T15:08:01.957Z,30.58
2022-08-06T15:11:18.071Z,31.12
2022-08-06T15:14:24.931Z,30.46
2022-08-06T15:18:04.155Z,31.22
2022-08-06T15:21:00.559Z,30.35
2022-08-06T15:24:07.663Z,30.24
2022-08-06T15:27:27.483Z,29.84
2022-08-06T15:30:35.020Z,30.49
2022-08-06T15:33:41.516Z,29.39
2022-08-06T15:37:01.502Z,29.60
2022-08-06T15:40:12.399Z,30.04
2022-08-06T15:43:23.285Z,29.48
2022-08-06T15:46:29.978Z,29.33
2022-08-06T15:50:01.008Z,29.15
2022-08-06T15:53:22.815Z,29.00
2022-08-06T15:56:38.537Z,29.42
2022-08-06T15:59:52.852Z,29.25
2022-08-06T16:02:59.180Z,29.03
2022-08-06T16:06:25.534Z,28.65
2022-08-06T16:10:01.578Z,28.03
2022-08-06T16:13:03.786Z,27.77
2022-08-06T16:16:11.435Z,27.86
2022-08-06T16:19:22.317Z,27.66
2022-08-06T16:22:28.704Z,27.59
2022-08-06T16:25:40.670Z,27.55
2022-08-06T16:29:04.080Z,27.30
2022-08-06T16:32:13.648Z,27.33
2022-08-06T16:35:22.279Z,27.25
2022-08-06T16:38:31.222Z,27.17
2022-08-06T16:41:58.592Z,27.08
2022-08-06T16:48:32.933Z,26.74
2022-08-06T16:55:08.100Z,26.61
2022-08-06T16:58:16.589Z,26.62
2022-08-06T17:02:21.304Z,26.60
2022-08-06T17:05:10.550Z,26.56
2022-08-06T17:08:23.800Z,26.27
2022-08-06T17:11:47.536Z,26.59
2022-08-06T17:14:59.742Z,26.60
2022-08-06T17:18:12.676Z,26.39
2022-08-06T17:21:52.925Z,26.12
2022-08-06T17:24:59.917Z,26.11
2022-08-06T17:28:06.626Z,25.62
2022-08-06T17:31:57.575Z,25.28
2022-08-06T17:34:44.163Z,24.97
2022-08-06T17:37:54.523Z,24.90
2022-08-06T17:41:00.573Z,24.85
2022-08-06T17:42:29.493Z,26.60
2022-08-06T17:44:06.916Z,24.69
2022-08-06T17:47:19.560Z,24.72
2022-08-06T17:50:41.987Z,24.63
2022-08-06T17:53:52.455Z,24.47
2022-08-06T17:57:01.632Z,24.58
2022-08-06T18:03:51.211Z,25.01
2022-08-06T18:06:58.479Z,24.55
2022-08-06T18:10:26.970Z,24.48
2022-08-06T18:13:53.324Z,23.93
2022-08-06T18:17:00.623Z,24.43
2022-08-06T18:20:10.060Z,24.09
2022-08-06T18:23:20.910Z,23.99
2022-08-06T18:26:30.666Z,24.28
2022-08-06T18:29:59.129Z,23.95
2022-08-06T18:33:08.017Z,23.96
2022-08-06T18:36:16.680Z,23.88
2022-08-06T18:39:23.118Z,23.74
2022-08-06T18:42:29.419Z,23.65
2022-08-06T18:45:36.962Z,23.61
2022-08-06T18:48:47.085Z,23.38
2022-08-06T18:51:57.651Z,23.57
2022-08-06T18:55:04.690Z,23.83
2022-08-06T18:58:14.897Z,23.98
2022-08-06T19:01:21.902Z,24.00
2022-08-06T19:04:30.040Z,23.90
2022-08-06T19:07:40.473Z,23.81
2022-08-06T19:11:00.938Z,23.36
2022-08-06T19:14:18.312Z,22.65
2022-08-06T19:18:10.100Z,22.66
2022-08-06T19:20:53.335Z,23.02
2022-08-06T19:24:03.264Z,23.10
2022-08-06T19:27:10.583Z,23.45
2022-08-06T19:30:35.811Z,23.40
2022-08-06T19:33:43.117Z,23.00
2022-08-06T19:36:51.646Z,23.00
2022-08-06T19:40:12.871Z,23.05
2022-08-06T19:44:24.882Z,23.54
2022-08-06T19:46:56.467Z,23.41
2022-08-06T19:50:03.670Z,23.36
2022-08-06T19:53:12.855Z,23.18
2022-08-06T19:56:20.810Z,23.19
2022-08-06T20:00:54.765Z,23.10
2022-08-06T20:02:54.898Z,23.05
2022-08-06T20:06:20.685Z,22.90
2022-08-06T20:09:42.131Z,22.56
2022-08-06T20:12:57.797Z,22.72
2022-08-06T20:16:05.809Z,22.26
2022-08-06T20:19:16.178Z,21.99
2022-08-06T20:22:23.543Z,22.21
2022-08-06T20:25:40.698Z,22.08
2022-08-06T20:29:10.243Z,21.64
2022-08-06T20:32:24.807Z,21.58
2022-08-06T20:35:32.640Z,21.66
2022-08-06T20:38:44.361Z,21.84
2022-08-06T20:42:02.140Z,21.95
2022-08-06T20:45:21.159Z,21.84
2022-08-06T20:48:38.974Z,21.57
2022-08-06T20:51:45.879Z,21.91
2022-08-06T20:54:58.443Z,21.73
2022-08-06T20:58:04.927Z,21.63
2022-08-06T21:01:12.991Z,21.85
2022-08-06T21:05:14.700Z,21.69
2022-08-06T21:07:46.287Z,21.61
2022-08-06T21:11:00.499Z,21.56
2022-08-06T21:14:10.668Z,21.50
2022-08-06T21:17:22.213Z,21.52
2022-08-06T21:20:28.622Z,21.45
2022-08-06T21:23:55.835Z,21.40
2022-08-06T21:27:05.491Z,21.16
2022-08-06T21:30:16.887Z,21.14
2022-08-06T21:33:42.934Z,21.16
2022-08-06T21:37:01.811Z,20.79
2022-08-06T21:40:10.110Z,20.75
2022-08-06T21:43:17.336Z,20.61
2022-08-06T21:46:34.151Z,20.57
2022-08-06T21:50:01.052Z,20.20
2022-08-06T21:53:52.932Z,20.41
2022-08-06T21:56:45.285Z,20.27
2022-08-06T21:59:53.360Z,20.24
2022-08-06T22:03:00.047Z,20.35
2022-08-06T22:06:22.281Z,20.16
2022-08-06T22:09:38.701Z,19.72
2022-08-06T22:13:11.832Z,19.58
2022-08-06T22:16:15.844Z,19.73
2022-08-06T22:19:33.527Z,19.92
2022-08-06T22:22:42.198Z,19.86
2022-08-06T22:25:50.012Z,19.43
2022-08-06T22:28:56.953Z,19.34
2022-08-06T22:32:04.716Z,19.02
2022-08-06T22:35:12.504Z,19.13
2022-08-06T22:38:23.854Z,19.27
2022-08-06T22:41:42.831Z,19.10
2022-08-06T22:45:47.431Z,18.92
2022-08-06T22:48:28.460Z,18.75
2022-08-06T22:51:45.761Z,19.01
2022-08-06T22:54:59.718Z,18.96
2022-08-06T22:59:05.060Z,18.84
2022-08-06T23:02:08.055Z,19.04
2022-08-06T23:05:00.494Z,18.84
2022-08-06T23:08:06.923Z,17.71
2022-08-06T23:11:20.853Z,17.93
2022-08-06T23:14:27.399Z,17.38
2022-08-06T23:17:40.245Z,18.08
2022-08-06T23:21:21.993Z,18.23
2022-08-06T23:24:32.826Z,18.48
2022-08-06T23:27:46.354Z,18.60
2022-08-06T23:30:53.671Z,18.69
2022-08-06T23:34:00.624Z,18.63
2022-08-06T23:37:10.470Z,18.77
2022-08-06T23:40:17.834Z,18.60
2022-08-06T23:43:30.707Z,18.57
2022-08-06T23:46:41.209Z,17.88
2022-08-06T23:49:57.477Z,17.45
2022-08-06T23:53:06.438Z,17.52
2022-08-06T23:56:14.644Z,17.93
2022-08-06T23:59:44.773Z,18.05
